Wakayoshi Maru No.5 — JL6545 — position and weather

sailwx.info

Track history (hours):
 
Tides and Currents Weather Stations Pressure Air Temp Water Temp Dewpoint Dewpoint Depression Visibility Wind Speed Wind Dir Waves Ship Positions

Wakayoshi Maru No.5

Last reported at 2017-Nov-07 09:51 UTC. Time now 2017-Nov-18 06:49 UTC.
Position N 34°24' E 135°04'.
Warning: this ship's position is 10 days out of date.

Length 76 m; draft 4.7 m.

Type: Cargo ship. MMSI: 431500615.

Date/timePositionNaut miles runAvg speedWind from/ knotsBaromVisibWave heightAir tempDewpointWater temp
2017-Nov-07 09:51N 34°24' E 135°04'513.1
2017-Nov-07 09:27N 34°27' E 135°09'612.8
2017-Nov-07 08:59N 34°31' E 135°15'612.2
2017-Nov-07 08:30N 34°35' E 135°21'4 8.1
2017-Nov-07 08:00N 34°35' E 135°26'0 0.0
2017-Nov-07 05:57N 34°35' E 135°26'0 0.0
2017-Nov-07 02:19N 34°35' E 135°26'2 5.6
2017-Nov-07 01:58N 34°36' E 135°24'612.1
2017-Nov-07 01:30N 34°33' E 135°18'713.2
2017-Nov-07 00:59N 34°29' E 135°12'  
2017-Nov-04 08:54N 33°59' E 135°00'512.9
2017-Nov-04 08:30N 34°04' E 134°60'913.5
2017-Nov-04 07:50N 34°13' E 134°59'1512.5
2017-Nov-04 06:39N 34°26' E 135°07'214.1
2017-Nov-04 06:29N 34°28' E 135°09'713.2
2017-Nov-04 05:59N 34°32' E 135°15'812.8
2017-Nov-04 05:22N 34°36' E 135°23'3 7.1
2017-Nov-04 04:59N 34°35' E 135°26'0 0.0
2017-Nov-04 03:44N 34°35' E 135°26'0 0.0
2017-Nov-04 00:32N 34°35' E 135°26'0 0.0
2017-Nov-04 00:20N 34°35' E 135°26'0 0.0
2017-Nov-03 23:26N 34°35' E 135°26'0 0.5
2017-Nov-03 22:45N 34°35' E 135°25'0 0.0
2017-Nov-03 22:27N 34°35' E 135°25'0 0.1
2017-Nov-03 21:50N 34°35' E 135°25'3 9.1
2017-Nov-03 21:30N 34°36' E 135°22'613.0
2017-Nov-03 21:00N 34°35' E 135°14'713.3
2017-Nov-03 20:30N 34°35' E 135°06'  
Track history (hours):
 
Tides and Currents Weather Stations Pressure Air Temp Water Temp Dewpoint Dewpoint Depression Visibility Wind Speed Wind Dir Waves Ship Positions

Wakayoshi Maru No.5

Last reported at 2017-Nov-07 09:51 UTC. Time now 2017-Nov-18 06:49 UTC.
Position N 34°24' E 135°04'.
Warning: this ship's position is 10 days out of date.

Length 76 m; draft 4.7 m.

Type: Cargo ship. MMSI: 431500615.

Date/timePositionNaut miles runAvg speedWind from/ knotsBaromVisibWave heightAir tempDewpointWater temp
2017-Nov-07 09:51N 34°24' E 135°04'513.1
2017-Nov-07 09:27N 34°27' E 135°09'612.8
2017-Nov-07 08:59N 34°31' E 135°15'612.2
2017-Nov-07 08:30N 34°35' E 135°21'4 8.1
2017-Nov-07 08:00N 34°35' E 135°26'0 0.0
2017-Nov-07 05:57N 34°35' E 135°26'0 0.0
2017-Nov-07 02:19N 34°35' E 135°26'2 5.6
2017-Nov-07 01:58N 34°36' E 135°24'612.1
2017-Nov-07 01:30N 34°33' E 135°18'713.2
2017-Nov-07 00:59N 34°29' E 135°12'  
2017-Nov-04 08:54N 33°59' E 135°00'512.9
2017-Nov-04 08:30N 34°04' E 134°60'913.5
2017-Nov-04 07:50N 34°13' E 134°59'1512.5
2017-Nov-04 06:39N 34°26' E 135°07'214.1
2017-Nov-04 06:29N 34°28' E 135°09'713.2
2017-Nov-04 05:59N 34°32' E 135°15'812.8
2017-Nov-04 05:22N 34°36' E 135°23'3 7.1
2017-Nov-04 04:59N 34°35' E 135°26'0 0.0
2017-Nov-04 03:44N 34°35' E 135°26'0 0.0
2017-Nov-04 00:32N 34°35' E 135°26'0 0.0
2017-Nov-04 00:20N 34°35' E 135°26'0 0.0
2017-Nov-03 23:26N 34°35' E 135°26'0 0.5
2017-Nov-03 22:45N 34°35' E 135°25'0 0.0
2017-Nov-03 22:27N 34°35' E 135°25'0 0.1
2017-Nov-03 21:50N 34°35' E 135°25'3 9.1
2017-Nov-03 21:30N 34°36' E 135°22'613.0
2017-Nov-03 21:00N 34°35' E 135°14'713.3
2017-Nov-03 20:30N 34°35' E 135°06'  

Dump ship's entire track history